Arthur Maersk — OXJH2 — position and weather

sailwx.info

Track history (hours):
 
Tides and Currents Weather Stations Pressure Air Temp Water Temp Dewpoint Dewpoint Depression Visibility Wind Speed Wind Dir Waves Ship Positions

Arthur Maersk

Last reported at 2016-Jul-28 06:29 UTC. Time now 2016-Jul-30 18:50 UTC.
Position N 36°24' W 009°54'.

Length 352 m; draft 13.2 m.

Type: Ship (hazmat cat A). MMSI: 220221000.

Date/timePositionNaut miles runAvg speedWind from/ knotsBaromVisibWave heightAir tempDewpointWater temp
2016-Jul-28 06:29N 36°24' W 009°54'2619.4
2016-Jul-28 05:10N 36°15' W 009°25'1219.7
2016-Jul-28 04:33N 36°13' W 009°10'2119.7
2016-Jul-28 03:30N 36°11' W 008°44'1919.9
2016-Jul-28 02:31N 36°09' W 008°20'1919.9
2016-Jul-28 01:33N 36°06' W 007°57'2019.8
2016-Jul-28 00:33N 36°05' W 007°32'2019.6
2016-Jul-27 23:33N 36°03' W 007°08'2019.5
2016-Jul-27 22:32N 36°02' W 006°43'1919.1
2016-Jul-27 21:33N 35°60' W 006°20'2118.8
2016-Jul-27 20:26N 35°58' W 005°54'1618.4
2016-Jul-27 19:33N 35°58' W 005°34'1818.3
2016-Jul-27 18:33N 36°03' W 005°13'215159.7
2016-Jul-27 17:13N 36°38' W 000°49'0 0.0
2016-Jul-27 16:28N 36°38' W 000°49'7 6.3
2016-Jul-27 15:24N 36°39' W 000°41'7 5.9
2016-Jul-27 14:16N 36°38' W 000°49'0 0.0
2016-Jul-27 13:32N 36°38' W 000°49'0 0.0
2016-Jul-27 12:04N 36°38' W 000°49'0 0.0
2016-Jul-27 11:20N 36°38' W 000°49'3316.0
2016-Jul-27 09:15N 36°32' W 001°29'1420.5
2016-Jul-27 08:33N 36°35' W 001°12'2120.1
2016-Jul-27 07:32N 36°39' W 000°47'1919.1
2016-Jul-27 06:33N 36°41' W 000°23'1918.9
2016-Jul-27 05:33N 36°43' E 000°00'1919.6
2016-Jul-27 04:34N 36°47' E 000°24'2020.1
2016-Jul-27 03:33N 36°51' E 000°49'3919.5
2016-Jul-27 01:34N 36°58' E 001°36'2019.7
2016-Jul-27 00:33N 37°02' E 002°01'2019.7
2016-Jul-26 23:33N 37°03' E 002°25'2019.7
2016-Jul-26 22:33N 37°05' E 002°50'2019.1
2016-Jul-26 21:30N 37°09' E 003°15'1818.9
2016-Jul-26 20:34N 37°11' E 003°37'49018.8
2016-Jul-25 18:27N 36°37' E 013°48'1618.2
2016-Jul-25 17:33N 36°33' E 014°08'1919.0
2016-Jul-25 16:33N 36°28' E 014°31'4019.1
2016-Jul-25 14:29N 36°16' E 015°17'1919.2
2016-Jul-25 13:29N 36°09' E 015°40'2319.7
2016-Jul-25 12:20N 36°02' E 016°06'1519.5
2016-Jul-25 11:33N 35°58' E 016°24'2019.5
2016-Jul-25 10:33N 35°52' E 016°47'66719.1
2016-Jul-23 23:33N 32°29' E 029°35'2519.2
2016-Jul-23 22:14N 32°22' E 030°04'1319.2
2016-Jul-23 21:33N 32°18' E 030°18'1919.4
2016-Jul-23 20:33N 32°11' E 030°40'1919.5
2016-Jul-23 19:34N 32°05' E 031°02'3818.8
2016-Jul-23 17:31N 31°54' E 031°45'6612.1
2016-Jul-23 12:07N 30°55' E 032°19'68 5.6
2016-Jul-23 00:06N 29°48' E 032°34'  
Track history (hours):
 
Tides and Currents Weather Stations Pressure Air Temp Water Temp Dewpoint Dewpoint Depression Visibility Wind Speed Wind Dir Waves Ship Positions

Arthur Maersk

Last reported at 2016-Jul-28 06:29 UTC. Time now 2016-Jul-30 18:50 UTC.
Position N 36°24' W 009°54'.

Length 352 m; draft 13.2 m.

Type: Ship (hazmat cat A). MMSI: 220221000.

Date/timePositionNaut miles runAvg speedWind from/ knotsBaromVisibWave heightAir tempDewpointWater temp
2016-Jul-28 06:29N 36°24' W 009°54'2619.4
2016-Jul-28 05:10N 36°15' W 009°25'1219.7
2016-Jul-28 04:33N 36°13' W 009°10'2119.7
2016-Jul-28 03:30N 36°11' W 008°44'1919.9
2016-Jul-28 02:31N 36°09' W 008°20'1919.9
2016-Jul-28 01:33N 36°06' W 007°57'2019.8
2016-Jul-28 00:33N 36°05' W 007°32'2019.6
2016-Jul-27 23:33N 36°03' W 007°08'2019.5
2016-Jul-27 22:32N 36°02' W 006°43'1919.1
2016-Jul-27 21:33N 35°60' W 006°20'2118.8
2016-Jul-27 20:26N 35°58' W 005°54'1618.4
2016-Jul-27 19:33N 35°58' W 005°34'1818.3
2016-Jul-27 18:33N 36°03' W 005°13'215159.7
2016-Jul-27 17:13N 36°38' W 000°49'0 0.0
2016-Jul-27 16:28N 36°38' W 000°49'7 6.3
2016-Jul-27 15:24N 36°39' W 000°41'7 5.9
2016-Jul-27 14:16N 36°38' W 000°49'0 0.0
2016-Jul-27 13:32N 36°38' W 000°49'0 0.0
2016-Jul-27 12:04N 36°38' W 000°49'0 0.0
2016-Jul-27 11:20N 36°38' W 000°49'3316.0
2016-Jul-27 09:15N 36°32' W 001°29'1420.5
2016-Jul-27 08:33N 36°35' W 001°12'2120.1
2016-Jul-27 07:32N 36°39' W 000°47'1919.1
2016-Jul-27 06:33N 36°41' W 000°23'1918.9
2016-Jul-27 05:33N 36°43' E 000°00'1919.6
2016-Jul-27 04:34N 36°47' E 000°24'2020.1
2016-Jul-27 03:33N 36°51' E 000°49'3919.5
2016-Jul-27 01:34N 36°58' E 001°36'2019.7
2016-Jul-27 00:33N 37°02' E 002°01'2019.7
2016-Jul-26 23:33N 37°03' E 002°25'2019.7
2016-Jul-26 22:33N 37°05' E 002°50'2019.1
2016-Jul-26 21:30N 37°09' E 003°15'1818.9
2016-Jul-26 20:34N 37°11' E 003°37'49018.8
2016-Jul-25 18:27N 36°37' E 013°48'1618.2
2016-Jul-25 17:33N 36°33' E 014°08'1919.0
2016-Jul-25 16:33N 36°28' E 014°31'4019.1
2016-Jul-25 14:29N 36°16' E 015°17'1919.2
2016-Jul-25 13:29N 36°09' E 015°40'2319.7
2016-Jul-25 12:20N 36°02' E 016°06'1519.5
2016-Jul-25 11:33N 35°58' E 016°24'2019.5
2016-Jul-25 10:33N 35°52' E 016°47'66719.1
2016-Jul-23 23:33N 32°29' E 029°35'2519.2
2016-Jul-23 22:14N 32°22' E 030°04'1319.2
2016-Jul-23 21:33N 32°18' E 030°18'1919.4
2016-Jul-23 20:33N 32°11' E 030°40'1919.5
2016-Jul-23 19:34N 32°05' E 031°02'3818.8
2016-Jul-23 17:31N 31°54' E 031°45'6612.1
2016-Jul-23 12:07N 30°55' E 032°19'68 5.6
2016-Jul-23 00:06N 29°48' E 032°34'  

Dump ship's entire track history